Time;durP1;ratioP1;P1;durP2;ratioP2;P2;SDS_P1;SDS_P2;PMS_P1;PMS_P2;Temp;Humidity;BMP_temperature;BMP_pressure;BME280_temperature;BME280_humidity;BME280_pressure;Samples;Min_cycle;Max_cycle;Signal;HPM_P1;HPM_P2
2023/04/20 00:01:51;;;;;;;;;13.75;9.75;;;;;14.21;35.96;101192.56;5040224;28;45633;-68
2023/04/20 00:04:17;;;;;;;;;12.25;12.25;;;;;14.25;35.79;101193.44;5039374;28;45477;-69
2023/04/20 00:06:46;;;;;;;;;12.50;11.75;;;;;14.21;35.86;101179.41;5043889;28;45482;-67
2023/04/20 00:09:13;;;;;;;;;13.00;10.25;;;;;14.34;36.12;101204.81;5035553;28;45531;-72
2023/04/20 00:11:39;;;;;;;;;13.25;11.25;;;;;14.38;35.66;101198.63;5039857;28;45418;-69
2023/04/20 00:14:05;;;;;;;;;14.25;11.75;;;;;14.31;35.93;101196.94;5028869;28;45867;-72
2023/04/20 00:16:31;;;;;;;;;11.00;10.00;;;;;14.35;36.42;101190.72;5048136;28;45785;-71
2023/04/20 00:18:58;;;;;;;;;12.67;10.33;;;;;14.27;35.42;101173.25;5054671;28;45532;-70
2023/04/20 00:21:24;;;;;;;;;12.75;12.50;;;;;14.32;35.93;101174.06;5057093;27;45281;-73
2023/04/20 00:23:50;;;;;;;;;17.50;13.00;;;;;14.34;35.11;101194.25;5070152;28;45341;-71
2023/04/20 00:26:16;;;;;;;;;11.50;10.00;;;;;14.33;35.94;101189.88;5057162;27;45499;-67
2023/04/20 00:28:43;;;;;;;;;14.50;11.00;;;;;14.32;35.38;101185.47;5056517;28;46286;-69
2023/04/20 00:31:09;;;;;;;;;13.50;13.50;;;;;14.39;35.96;101187.19;5070534;27;45373;-66
2023/04/20 00:33:36;;;;;;;;;12.75;11.00;;;;;14.34;36.04;101178.44;5067942;28;45437;-72
2023/04/20 00:36:02;;;;;;;;;11.67;9.00;;;;;14.37;35.60;101177.56;5053944;27;45505;-69
2023/04/20 00:38:28;;;;;;;;;10.00;8.50;;;;;14.35;35.83;101169.66;5053376;27;45793;-71
2023/04/20 00:40:56;;;;;;;;;10.00;9.00;;;;;14.34;35.97;101167.91;5054832;28;45657;-71
2023/04/20 00:43:22;;;;;;;;;10.33;10.33;;;;;14.39;35.67;101170.50;5054142;28;45749;-69
2023/04/20 00:45:47;;;;;;;;;12.33;10.00;;;;;14.33;35.96;101158.28;5056873;27;45702;-70
2023/04/20 00:48:13;;;;;;;;;13.00;10.25;;;;;14.42;35.91;101166.09;5061809;28;45432;-70
2023/04/20 00:50:40;;;;;;;;;19.50;15.50;;;;;14.29;35.61;101164.44;5055682;27;45780;-72
2023/04/20 00:53:09;;;;;;;;;15.75;13.75;;;;;14.19;35.14;101152.22;5059859;27;45412;-69
2023/04/20 00:55:36;;;;;;;;;12.75;9.75;;;;;13.99;35.90;101131.25;5054961;28;45580;-67
2023/04/20 00:58:02;;;;;;;;;14.50;12.75;;;;;13.99;36.05;101144.41;5056383;27;46051;-68
2023/04/20 01:00:28;;;;;;;;;15.00;11.25;;;;;14.04;36.53;101147.88;5052052;27;45636;-68
2023/04/20 01:02:53;;;;;;;;;10.00;9.50;;;;;14.03;36.26;101140.03;5052299;28;45472;-70
2023/04/20 01:05:20;;;;;;;;;13.75;10.50;;;;;14.15;36.54;101161.88;5051102;27;45915;-69
2023/04/20 01:07:46;;;;;;;;;8.67;8.67;;;;;14.04;36.77;101132.09;5052586;27;45922;-68
2023/04/20 01:10:12;;;;;;;;;10.50;7.50;;;;;14.21;36.68;101160.97;5052574;28;45668;-66
2023/04/20 01:12:37;;;;;;;;;12.75;10.75;;;;;14.22;36.55;101170.63;5054136;28;45417;-72
2023/04/20 01:15:07;;;;;;;;;13.75;10.75;;;;;14.16;36.26;101158.34;5059902;27;45824;-68
2023/04/20 01:17:35;;;;;;;;;12.33;9.67;;;;;14.07;36.34;101147.91;5056795;27;45415;-69
2023/04/20 01:20:01;;;;;;;;;12.00;8.00;;;;;14.08;36.65;101152.25;5056259;28;45436;-67
2023/04/20 01:22:27;;;;;;;;;9.00;7.75;;;;;14.10;36.72;101154.91;5053984;28;45475;-65
2023/04/20 01:24:53;;;;;;;;;14.67;11.00;;;;;14.15;36.62;101145.22;5063312;28;45672;-72
2023/04/20 01:27:18;;;;;;;;;14.25;9.00;;;;;14.14;36.29;101143.44;5072094;28;46025;-67
2023/04/20 01:29:44;;;;;;;;;9.00;9.00;;;;;14.11;36.17;101140.84;5088802;27;45609;-67
2023/04/20 01:32:11;;;;;;;;;10.75;9.25;;;;;13.95;36.73;101145.31;5088882;27;45264;-75
2023/04/20 01:34:37;;;;;;;;;8.33;6.67;;;;;13.90;36.77;101139.19;5073248;27;45464;-69
2023/04/20 01:37:06;;;;;;;;;16.00;10.75;;;;;13.89;36.67;101132.19;5072381;27;46064;-66
2023/04/20 01:39:37;;;;;;;;;13.50;10.75;;;;;13.92;36.98;101138.31;5071878;27;45522;-68
2023/04/20 01:42:03;;;;;;;;;12.75;11.25;;;;;13.80;36.90;101125.19;5073338;27;45420;-67
2023/04/20 01:44:28;;;;;;;;;16.25;10.00;;;;;13.45;36.83;101076.22;5073194;27;45352;-67
2023/04/20 01:46:54;;;;;;;;;13.25;8.25;;;;;13.62;36.78;101120.00;5071448;27;46114;-66
2023/04/20 01:49:19;;;;;;;;;10.00;10.00;;;;;13.62;36.89;101120.00;5073085;27;45619;-72
2023/04/20 01:51:45;;;;;;;;;12.50;8.00;;;;;13.58;37.02;101132.34;5085925;27;45413;-68
2023/04/20 01:54:10;;;;;;;;;9.75;9.25;;;;;13.58;37.72;101127.94;5072940;27;45477;-66
2023/04/20 01:56:36;;;;;;;;;12.00;9.00;;;;;13.57;37.60;101120.94;5072722;27;46506;-69
2023/04/20 01:59:01;;;;;;;;;11.50;8.25;;;;;13.63;37.25;101124.41;5073317;28;45409;-66
2023/04/20 02:01:27;;;;;;;;;11.75;10.00;;;;;13.54;37.08;101114.78;5088606;27;45502;-67
2023/04/20 02:03:53;;;;;;;;;13.50;9.25;;;;;13.39;37.92;101121.00;5075846;27;45521;-70
2023/04/20 02:06:18;;;;;;;;;14.50;12.50;;;;;13.38;36.97;101136.78;5079808;27;45611;-67
2023/04/20 02:08:43;;;;;;;;;13.25;11.75;;;;;13.14;37.69;101120.16;5096069;27;45544;-69
2023/04/20 02:11:10;;;;;;;;;11.00;8.25;;;;;13.13;38.06;101132.44;5077254;27;45476;-68
2023/04/20 02:13:35;;;;;;;;;11.50;9.50;;;;;12.99;38.04;101125.44;5076411;27;45368;-67
2023/04/20 02:16:01;;;;;;;;;13.50;9.50;;;;;12.92;38.29;101116.69;5075781;27;45490;-67
2023/04/20 02:18:28;;;;;;;;;10.00;9.00;;;;;13.10;38.13;101144.72;5075886;27;45529;-69
2023/04/20 02:20:54;;;;;;;;;11.75;10.00;;;;;13.03;38.21;101121.94;5076014;27;45467;-69
2023/04/20 02:23:20;;;;;;;;;12.00;9.25;;;;;13.13;38.59;101129.81;5076021;27;45647;-72
2023/04/20 02:25:45;;;;;;;;;12.25;8.75;;;;;13.10;38.96;101142.97;5061095;27;45762;-69
2023/04/20 02:28:11;;;;;;;;;10.50;8.75;;;;;13.04;38.30;101134.22;5075997;27;45449;-68
2023/04/20 02:30:36;;;;;;;;;14.00;10.25;;;;;13.03;38.39;101135.09;5091451;27;45798;-67
2023/04/20 02:33:02;;;;;;;;;11.75;11.75;;;;;12.86;38.29;101129.84;5075040;27;45557;-67
2023/04/20 02:35:27;;;;;;;;;9.75;8.50;;;;;12.75;38.69;101121.97;5075566;27;45749;-68
2023/04/20 02:37:53;;;;;;;;;11.00;8.75;;;;;12.73;38.44;101131.59;5075819;28;45518;-71
2023/04/20 02:40:18;;;;;;;;;10.25;9.00;;;;;12.72;38.95;101133.38;5078729;27;45421;-68
2023/04/20 02:42:44;;;;;;;;;8.00;7.00;;;;;12.80;38.99;101146.50;5080023;27;45487;-67
2023/04/20 02:45:10;;;;;;;;;7.00;7.00;;;;;12.78;38.44;101143.00;5095534;27;47920;-72
2023/04/20 02:47:36;;;;;;;;;12.00;8.25;;;;;12.79;39.17;101143.84;5079848;27;45411;-67
2023/04/20 02:50:01;;;;;;;;;9.75;9.75;;;;;12.77;38.88;101143.88;5078320;27;45283;-68
2023/04/20 02:52:27;;;;;;;;;10.50;9.25;;;;;12.72;38.98;101141.25;5075850;27;45374;-68
2023/04/20 02:54:52;;;;;;;;;10.25;6.00;;;;;12.63;38.78;101138.63;5075047;27;46757;-72
2023/04/20 02:57:18;;;;;;;;;10.75;7.25;;;;;12.65;38.74;101134.25;5078430;27;45392;-70
2023/04/20 02:59:43;;;;;;;;;9.00;8.25;;;;;12.66;38.99;101146.50;5074522;27;45375;-68
2023/04/20 03:02:12;;;;;;;;;8.00;6.75;;;;;12.55;39.34;101129.84;5063778;27;45398;-68
2023/04/20 03:04:38;;;;;;;;;8.50;8.50;;;;;12.46;38.61;101125.50;5064107;27;46694;-70
2023/04/20 03:07:03;;;;;;;;;9.75;8.75;;;;;12.36;39.03;101138.59;5060834;27;45428;-68
2023/04/20 03:09:29;;;;;;;;;8.00;8.00;;;;;12.20;39.18;101133.34;5062823;27;45437;-67
2023/04/20 03:11:55;;;;;;;;;8.75;8.25;;;;;12.05;38.87;101107.03;5059544;27;45285;-70
2023/04/20 03:14:20;;;;;;;;;8.75;8.25;;;;;12.17;39.22;101153.44;5054045;27;46546;-69
2023/04/20 03:16:46;;;;;;;;;9.00;7.25;;;;;12.02;38.94;101149.91;5054933;27;45486;-66
2023/04/20 03:19:12;;;;;;;;;7.50;6.50;;;;;11.96;39.53;101142.03;5054714;28;45544;-67
2023/04/20 03:21:38;;;;;;;;;8.25;8.25;;;;;12.03;39.73;101153.41;5055292;27;45923;-71
2023/04/20 03:24:05;;;;;;;;;6.00;6.00;;;;;11.78;39.66;101131.44;5068526;27;45637;-66
2023/04/20 03:26:31;;;;;;;;;10.00;8.25;;;;;11.75;39.64;101149.81;5062930;27;45743;-67
2023/04/20 03:28:58;;;;;;;;;10.00;8.50;;;;;11.71;40.36;101148.03;5076745;27;45381;-73
2023/04/20 03:31:24;;;;;;;;;9.25;8.25;;;;;11.52;40.27;101110.34;5056454;27;45416;-72
2023/04/20 03:33:49;;;;;;;;;8.00;6.25;;;;;11.67;40.19;101142.78;5058775;27;45579;-73
2023/04/20 03:36:15;;;;;;;;;7.00;7.00;;;;;11.70;40.24;101146.28;5054250;27;45655;-69
2023/04/20 03:38:41;;;;;;;;;6.25;6.00;;;;;11.63;40.71;101129.66;5058524;27;45360;-74
2023/04/20 03:41:07;;;;;;;;;9.00;7.50;;;;;11.73;39.84;101141.94;5056153;27;45417;-71
2023/04/20 03:43:32;;;;;;;;;9.75;9.00;;;;;11.70;40.00;101141.91;5055178;28;45472;-71
2023/04/20 03:45:58;;;;;;;;;12.50;6.00;;;;;11.65;40.54;101138.38;5055820;27;45873;-72
2023/04/20 03:48:25;;;;;;;;;8.50;6.75;;;;;11.68;40.19;101133.16;5056266;28;45743;-73
2023/04/20 03:50:50;;;;;;;;;10.75;8.25;;;;;11.55;39.87;101131.34;5056706;27;45650;-71
2023/04/20 03:53:16;;;;;;;;;9.50;9.50;;;;;11.43;40.01;101140.91;5055099;27;45409;-67
2023/04/20 03:55:42;;;;;;;;;9.00;6.75;;;;;11.52;39.98;101141.84;5063238;27;45482;-71
2023/04/20 03:58:08;;;;;;;;;8.00;5.75;;;;;11.48;40.22;101143.56;5064397;27;45437;-73
2023/04/20 04:00:33;;;;;;;;;7.00;6.25;;;;;11.58;39.91;101150.63;5057474;27;45421;-66
2023/04/20 04:02:59;;;;;;;;;8.50;6.50;;;;;11.48;40.43;101159.28;5054687;27;46114;-76
2023/04/20 04:05:27;;;;;;;;;10.25;8.25;;;;;11.46;40.43;101155.81;5055230;27;45485;-70
2023/04/20 04:07:52;;;;;;;;;11.25;8.25;;;;;11.46;40.15;101147.94;5055294;28;45555;-75
2023/04/20 04:10:18;;;;;;;;;9.25;6.00;;;;;11.55;40.07;101157.59;5059938;27;45763;-71
2023/04/20 04:12:44;;;;;;;;;12.00;8.00;;;;;11.58;40.03;101157.59;5056845;27;46683;-70
2023/04/20 04:15:11;;;;;;;;;8.25;8.25;;;;;11.57;40.24;101156.72;5062728;27;45520;-70
2023/04/20 04:17:37;;;;;;;;;9.50;8.50;;;;;11.62;40.02;101160.22;5059275;28;45476;-67
2023/04/20 04:20:06;;;;;;;;;10.00;7.25;;;;;11.49;39.60;101157.56;5055584;28;45690;-66
2023/04/20 04:22:33;;;;;;;;;10.00;8.50;;;;;11.39;39.82;101159.25;5061580;27;45417;-68
2023/04/20 04:24:58;;;;;;;;;9.00;9.00;;;;;11.32;40.35;101174.09;5059235;27;45669;-67
2023/04/20 04:27:24;;;;;;;;;10.00;8.25;;;;;11.22;39.80;101165.28;5086414;27;45501;-67
2023/04/20 04:29:50;;;;;;;;;9.25;7.50;;;;;11.19;40.26;101177.50;5063043;28;45718;-66
2023/04/20 04:32:17;;;;;;;;;11.25;9.75;;;;;11.12;40.07;101179.19;5072188;27;46020;-66
2023/04/20 04:34:43;;;;;;;;;10.75;8.25;;;;;10.97;40.66;101181.72;5068590;27;45814;-66
2023/04/20 04:37:11;;;;;;;;;8.75;7.75;;;;;10.79;40.38;101177.19;5058512;27;45398;-67
2023/04/20 04:39:37;;;;;;;;;9.25;8.00;;;;;10.60;41.21;101169.16;5056540;27;45413;-66
2023/04/20 04:42:03;;;;;;;;;10.25;8.75;;;;;10.66;40.92;101171.00;5054200;28;45692;-67
2023/04/20 04:44:30;;;;;;;;;13.50;12.00;;;;;10.58;40.79;101165.69;5062182;27;45718;-67
2023/04/20 04:46:56;;;;;;;;;9.50;9.50;;;;;10.69;40.64;101194.56;5057949;28;45383;-67
2023/04/20 04:49:25;;;;;;;;;8.50;8.00;;;;;10.74;40.75;101192.00;5057836;28;45539;-72
2023/04/20 04:51:51;;;;;;;;;9.50;8.75;;;;;10.69;40.54;101176.25;5056229;27;46095;-68
2023/04/20 04:54:16;;;;;;;;;10.00;8.00;;;;;10.70;40.26;101179.72;5060871;28;45445;-68
2023/04/20 04:56:42;;;;;;;;;11.25;8.75;;;;;10.64;40.44;101166.59;5052448;27;45572;-72
2023/04/20 04:59:07;;;;;;;;;13.00;10.00;;;;;10.81;40.57;101196.44;5069224;27;45604;-72
2023/04/20 05:01:33;;;;;;;;;11.25;9.75;;;;;10.64;40.38;101183.19;5054334;28;46588;-71
2023/04/20 05:04:00;;;;;;;;;13.00;10.00;;;;;10.64;40.63;101198.91;5054770;28;45705;-67
2023/04/20 05:06:25;;;;;;;;;10.75;9.50;;;;;10.67;40.28;101206.78;5053497;27;45602;-71
2023/04/20 05:08:51;;;;;;;;;12.00;9.50;;;;;10.55;40.84;101198.81;5053530;27;45976;-66
2023/04/20 05:11:16;;;;;;;;;14.75;10.75;;;;;10.48;40.43;101200.50;5065553;28;46506;-66
2023/04/20 05:13:42;;;;;;;;;11.75;7.75;;;;;10.43;40.45;101207.44;5056796;28;45781;-69
2023/04/20 05:16:07;;;;;;;;;12.50;9.00;;;;;10.27;40.72;101185.41;5060801;27;46258;-68
2023/04/20 05:18:33;;;;;;;;;10.00;7.00;;;;;10.29;40.92;101195.94;5054773;28;45502;-65
2023/04/20 05:20:59;;;;;;;;;11.50;10.00;;;;;10.18;40.41;101196.69;5053247;28;46652;-67
2023/04/20 05:23:24;;;;;;;;;24.50;20.75;;;;;10.30;41.53;101214.28;5051124;28;45386;-69
2023/04/20 05:25:50;;;;;;;;;8.75;8.75;;;;;10.26;40.54;101201.13;5056673;27;45343;-70
2023/04/20 05:28:16;;;;;;;;;9.50;8.75;;;;;10.27;40.07;101215.94;5052712;27;45461;-68
2023/04/20 05:30:42;;;;;;;;;12.75;10.25;;;;;10.24;40.90;101221.16;5068295;27;47305;-68
2023/04/20 05:33:07;;;;;;;;;11.00;8.75;;;;;10.16;40.43;101234.16;5053997;28;45269;-71
2023/04/20 05:35:33;;;;;;;;;15.50;10.00;;;;;10.03;41.16;101214.81;5072837;27;45601;-72
2023/04/20 05:38:01;;;;;;;;;13.00;9.00;;;;;9.96;41.36;101228.69;5057921;28;45572;-69
2023/04/20 05:40:27;;;;;;;;;7.00;7.00;;;;;9.95;41.48;101233.03;5088770;27;47990;-67
2023/04/20 05:42:52;;;;;;;;;17.25;16.00;;;;;10.10;42.33;101219.25;5054957;27;45568;-68
2023/04/20 05:45:18;;;;;;;;;11.25;10.50;;;;;10.17;41.14;101194.91;5058780;27;45549;-66
2023/04/20 05:47:52;;;;;;;;;14.50;11.00;;;;;10.42;40.37;101217.88;5077436;27;45304;-70
2023/04/20 05:50:17;;;;;;;;;13.75;9.75;;;;;10.47;40.68;101227.56;5055417;27;46249;-66
2023/04/20 05:52:43;;;;;;;;;8.75;6.75;;;;;10.64;40.48;101229.47;5060201;27;45539;-70
2023/04/20 05:55:09;;;;;;;;;9.75;8.50;;;;;10.68;40.30;101219.03;5056039;27;45568;-69
2023/04/20 05:57:41;;;;;;;;;10.25;8.50;;;;;10.77;40.25;101210.34;5054828;27;45568;-66
2023/04/20 06:00:16;;;;;;;;;11.75;10.75;;;;;10.94;39.66;101226.22;5064152;27;45693;-73
2023/04/20 06:02:42;;;;;;;;;8.25;8.25;;;;;10.73;39.83;101175.41;5088088;27;45571;-68
2023/04/20 06:05:12;;;;;;;;;9.25;9.00;;;;;11.19;39.14;101237.78;5055183;27;45513;-69
2023/04/20 06:07:38;;;;;;;;;13.00;10.75;;;;;11.13;39.27;101220.28;5061970;27;45718;-70
2023/04/20 06:10:05;;;;;;;;;15.50;11.25;;;;;11.07;39.17;101211.50;5071213;27;47122;-69
2023/04/20 06:12:31;;;;;;;;;15.00;10.25;;;;;10.93;38.87;101199.16;5055933;27;45409;-67
2023/04/20 06:14:57;;;;;;;;;11.00;10.75;;;;;11.09;38.85;101221.13;5056927;27;45375;-71
2023/04/20 06:17:23;;;;;;;;;12.75;11.75;;;;;10.94;38.96;101194.78;5055629;27;45539;-70
2023/04/20 06:19:49;;;;;;;;;12.00;11.25;;;;;11.14;39.27;101211.53;5054715;27;45464;-66
2023/04/20 06:22:15;;;;;;;;;10.25;9.50;;;;;11.36;38.93;101225.66;5055306;27;45886;-68
2023/04/20 06:24:41;;;;;;;;;13.75;13.75;;;;;11.55;38.25;101220.53;5065033;27;45451;-70
2023/04/20 06:27:09;;;;;;;;;9.50;9.50;;;;;11.58;38.14;101205.72;5093492;27;45231;-66
2023/04/20 06:29:36;;;;;;;;;12.25;11.50;;;;;11.76;37.97;101212.78;5079647;27;45617;-69
2023/04/20 06:32:04;;;;;;;;;15.50;14.00;;;;;11.95;37.90;101228.66;5063379;27;45780;-67
2023/04/20 06:34:30;;;;;;;;;16.00;10.75;;;;;11.90;37.28;101210.25;5058389;27;45465;-66
2023/04/20 06:36:55;;;;;;;;;16.75;13.25;;;;;12.13;38.50;101233.13;5055378;27;45557;-67
2023/04/20 06:39:24;;;;;;;;;12.25;10.75;;;;;12.32;37.79;101223.53;5055267;27;45327;-76
2023/04/20 06:41:50;;;;;;;;;14.75;10.50;;;;;12.46;36.95;101219.19;5058125;27;45738;-69
2023/04/20 06:44:16;;;;;;;;;15.00;11.50;;;;;12.45;37.28;101202.53;5055180;27;45548;-67
2023/04/20 06:46:43;;;;;;;;;11.00;9.25;;;;;12.64;36.75;101213.94;5054914;27;45394;-72
2023/04/20 06:49:10;;;;;;;;;8.50;8.00;;;;;12.82;36.79;101222.75;5053837;27;45477;-70
2023/04/20 06:51:39;;;;;;;;;14.00;9.75;;;;;12.93;36.68;101221.88;5056815;27;45555;-68
2023/04/20 06:54:10;;;;;;;;;16.00;11.50;;;;;13.13;36.54;101220.97;5056946;27;45465;-67
2023/04/20 06:56:36;;;;;;;;;19.25;12.50;;;;;13.08;35.54;101218.34;5075641;27;45448;-66
2023/04/20 06:59:02;;;;;;;;;12.25;12.00;;;;;12.96;35.52;101205.22;5059475;27;46567;-68
2023/04/20 07:01:31;;;;;;;;;17.00;12.50;;;;;12.92;35.51;101216.59;5060531;27;45286;-67
2023/04/20 07:04:05;;;;;;;;;16.25;12.25;;;;;12.55;35.37;101206.03;5074657;27;45689;-68
2023/04/20 07:06:30;;;;;;;;;10.25;10.00;;;;;12.47;36.14;101205.16;5065901;27;45478;-67
2023/04/20 07:08:56;;;;;;;;;8.75;7.75;;;;;12.66;36.22;101204.31;5062821;27;46089;-68
2023/04/20 07:11:24;;;;;;;;;14.75;9.50;;;;;12.82;35.97;101212.22;5065957;27;45367;-70
2023/04/20 07:13:50;;;;;;;;;16.50;12.50;;;;;12.99;35.95;101226.25;5074573;27;45514;-69
2023/04/20 07:16:15;;;;;;;;;15.75;14.50;;;;;13.16;35.70;101229.72;5057578;28;45514;-67
2023/04/20 07:18:41;;;;;;;;;17.75;14.50;;;;;12.82;35.37;101183.31;5062674;28;46558;-67
2023/04/20 07:21:06;;;;;;;;;12.00;11.25;;;;;12.79;35.76;101197.34;5062625;27;45423;-67
2023/04/20 07:23:32;;;;;;;;;18.50;13.75;;;;;12.76;35.92;101214.84;5084738;27;45820;-67
2023/04/20 07:25:58;;;;;;;;;11.50;11.00;;;;;12.71;35.97;101218.34;5068160;27;45349;-71
2023/04/20 07:28:23;;;;;;;;;12.75;11.25;;;;;12.84;36.42;101221.88;5058420;28;45463;-72
2023/04/20 07:30:49;;;;;;;;;17.50;13.00;;;;;12.90;36.13;101226.22;5089942;27;45396;-69
2023/04/20 07:33:14;;;;;;;;;17.00;15.25;;;;;12.83;35.79;101211.34;5054783;27;45618;-68
2023/04/20 07:35:40;;;;;;;;;9.75;9.75;;;;;12.94;36.28;101213.09;5056651;27;45492;-70
2023/04/20 07:38:06;;;;;;;;;15.75;11.50;;;;;13.15;36.31;101219.22;5059227;27;46314;-73
2023/04/20 07:40:31;;;;;;;;;12.00;10.50;;;;;13.31;35.95;101210.47;5067579;27;45476;-66
2023/04/20 07:42:57;;;;;;;;;14.25;13.00;;;;;13.43;36.28;101203.41;5059259;27;45663;-72
2023/04/20 07:45:23;;;;;;;;;11.50;7.50;;;;;13.54;35.94;101206.91;5064879;27;45334;-67
2023/04/20 07:47:50;;;;;;;;;16.75;14.00;;;;;13.55;35.03;101195.50;5068544;27;46094;-68
2023/04/20 07:50:16;;;;;;;;;16.75;14.50;;;;;13.39;35.08;101205.19;5062352;28;45388;-69
2023/04/20 07:52:43;;;;;;;;;14.00;12.75;;;;;13.46;35.90;101196.41;5055796;27;45448;-70
2023/04/20 07:55:13;;;;;;;;;16.00;10.25;;;;;13.55;36.20;101192.88;5055993;27;45432;-72
2023/04/20 07:57:40;;;;;;;;;12.25;10.50;;;;;13.76;36.02;101199.81;5064304;28;46168;-73
2023/04/20 08:00:07;;;;;;;;;14.50;12.00;;;;;13.75;35.32;101172.63;5070076;27;45352;-78
2023/04/20 08:02:32;;;;;;;;;11.75;8.50;;;;;13.89;35.61;101175.19;5064553;27;45562;-65
2023/04/20 08:05:00;;;;;;;;;15.25;14.00;;;;;14.04;34.47;101189.16;5062360;28;45503;-70
2023/04/20 08:07:26;;;;;;;;;14.25;11.75;;;;;14.17;35.16;101188.22;5078038;27;45607;-68
2023/04/20 08:09:51;;;;;;;;;19.50;16.00;;;;;14.28;34.91;101188.16;5053502;27;45466;-71
2023/04/20 08:12:17;;;;;;;;;21.25;16.25;;;;;14.16;35.96;101184.69;5057285;27;45521;-67
2023/04/20 08:14:42;;;;;;;;;20.00;16.75;;;;;14.33;37.24;101187.25;5057278;27;45420;-71
2023/04/20 08:17:08;;;;;;;;;17.50;14.75;;;;;14.47;35.92;101195.03;5086353;27;46674;-72
2023/04/20 08:19:34;;;;;;;;;18.75;14.75;;;;;14.57;35.50;101186.25;5053326;27;45628;-69
2023/04/20 08:21:59;;;;;;;;;14.75;13.75;;;;;14.68;36.34;101178.22;5053772;27;45461;-72
2023/04/20 08:24:25;;;;;;;;;11.25;9.25;;;;;14.71;35.17;101162.41;5066326;28;46636;-72
2023/04/20 08:26:51;;;;;;;;;14.50;13.50;;;;;14.77;34.99;101145.66;5077998;27;45995;-71
2023/04/20 08:29:16;;;;;;;;;15.00;13.50;;;;;15.00;35.63;101172.69;5077933;27;45418;-66
2023/04/20 08:31:42;;;;;;;;;16.00;15.25;;;;;15.10;34.49;101172.63;5074813;27;45501;-72
2023/04/20 08:34:08;;;;;;;;;15.25;13.50;;;;;15.17;34.77;101172.53;5074243;27;45399;-73
2023/04/20 08:36:35;;;;;;;;;16.75;14.50;;;;;15.20;34.82;101168.97;5054935;28;46137;-72
2023/04/20 08:39:11;;;;;;;;;17.00;14.75;;;;;15.32;34.60;101167.97;5058357;27;45663;-67
2023/04/20 08:41:40;;;;;;;;;18.25;16.25;;;;;15.31;35.80;101156.56;5053547;28;45534;-72
2023/04/20 08:44:07;;;;;;;;;17.75;14.50;;;;;15.45;34.79;101174.88;5056431;27;45343;-70
2023/04/20 08:46:33;;;;;;;;;10.75;9.75;;;;;15.34;34.17;101148.59;5052897;27;45420;-65
2023/04/20 08:49:02;;;;;;;;;20.50;15.50;;;;;15.51;33.78;101164.25;5052576;28;45809;-69
2023/04/20 08:51:29;;;;;;;;;18.50;15.00;;;;;15.52;33.68;101170.38;5055289;28;45487;-68
2023/04/20 08:53:57;;;;;;;;;21.50;18.75;;;;;15.56;33.60;101172.13;5053213;27;45609;-69
2023/04/20 08:56:37;;;;;;;;;19.50;17.50;;;;;15.55;34.04;101165.97;5053796;27;46065;-70
2023/04/20 08:59:04;;;;;;;;;15.50;14.50;;;;;15.51;33.69;101158.09;5057499;28;45434;-68
2023/04/20 09:01:31;;;;;;;;;15.50;14.00;;;;;15.46;33.67;101140.53;5087224;27;45492;-67
2023/04/20 09:03:57;;;;;;;;;17.00;13.50;;;;;15.63;32.98;101166.72;5053638;27;45420;-68
2023/04/20 09:06:22;;;;;;;;;11.25;11.25;;;;;15.65;33.20;101169.38;5057804;27;46623;-67
2023/04/20 09:08:52;;;;;;;;;16.00;13.75;;;;;15.58;33.51;101141.28;5056399;27;45383;-69
2023/04/20 09:11:26;;;;;;;;;19.00;17.00;;;;;15.61;32.44;101141.25;5058315;27;45573;-71
2023/04/20 09:14:08;;;;;;;;;17.25;15.00;;;;;15.77;32.98;101142.84;5058469;27;45410;-69
2023/04/20 09:16:36;;;;;;;;;16.25;15.50;;;;;15.74;31.88;101136.72;5093451;27;47201;-68
2023/04/20 09:19:02;;;;;;;;;21.50;16.50;;;;;15.84;31.96;101130.44;5071871;27;45493;-67
2023/04/20 09:21:28;;;;;;;;;19.75;15.25;;;;;15.79;31.18;101124.34;5057060;27;45413;-66
2023/04/20 09:24:05;;;;;;;;;17.25;10.75;;;;;15.80;31.70;101120.78;5070009;27;45469;-70
2023/04/20 09:26:35;;;;;;;;;17.00;14.75;;;;;15.89;31.51;101123.31;5084033;27;45402;-67
2023/04/20 09:29:02;;;;;;;;;15.25;13.75;;;;;15.75;31.60;101107.63;5091857;27;45838;-70
2023/04/20 09:31:35;;;;;;;;;14.50;13.50;;;;;15.94;31.30;101117.97;5077310;27;45502;-74
2023/04/20 09:34:03;;;;;;;;;13.25;11.50;;;;;15.91;31.17;101108.31;5078260;27;45665;-69
2023/04/20 09:36:45;;;;;;;;;17.00;15.25;;;;;15.98;31.06;101103.81;5076931;27;46212;-68
2023/04/20 09:39:21;;;;;;;;;24.00;16.50;;;;;16.07;31.06;101103.69;5075123;27;45469;-72
2023/04/20 09:41:48;;;;;;;;;15.33;13.67;;;;;15.93;30.97;101088.03;5076827;27;45401;-72
2023/04/20 09:44:16;;;;;;;;;15.00;12.67;;;;;16.13;31.23;101108.88;5096127;27;45575;-73
2023/04/20 09:46:43;;;;;;;;;13.67;13.00;;;;;16.14;30.94;101088.63;5075333;27;46428;-69
2023/04/20 09:49:11;;;;;;;;;17.50;16.50;;;;;16.23;30.33;101089.34;5057196;27;45568;-72
2023/04/20 09:51:45;;;;;;;;;17.75;15.50;;;;;16.02;30.33;101069.41;5058137;27;45954;-67
2023/04/20 09:54:11;;;;;;;;;18.00;14.67;;;;;16.08;30.58;101066.66;5058225;27;46062;-69
2023/04/20 09:56:37;;;;;;;;;17.50;16.25;;;;;16.18;30.61;101069.16;5059456;27;45604;-67
2023/04/20 09:59:03;;;;;;;;;17.75;14.25;;;;;16.20;30.73;101057.66;5061221;27;45435;-66
2023/04/20 10:01:34;;;;;;;;;18.50;13.50;;;;;16.15;30.43;101048.94;5059874;27;45545;-70
2023/04/20 10:04:02;;;;;;;;;16.00;11.67;;;;;16.28;30.67;101069.00;5055933;27;45367;-70
2023/04/20 10:06:31;;;;;;;;;16.75;14.50;;;;;16.31;30.82;101071.59;5058810;27;45659;-71
2023/04/20 10:08:57;;;;;;;;;13.00;12.67;;;;;16.41;31.14;101069.66;5060036;27;45380;-71
2023/04/20 10:11:43;;;;;;;;;13.33;13.00;;;;;16.53;31.46;101077.38;5060069;27;45505;-74
2023/04/20 10:14:17;;;;;;;;;12.67;12.00;;;;;16.48;31.08;101066.00;5056285;27;46028;-71
2023/04/20 10:16:44;;;;;;;;;16.33;16.33;;;;;16.42;31.25;101041.44;5055778;27;45359;-69
2023/04/20 10:19:10;;;;;;;;;13.00;13.00;;;;;16.59;31.47;101049.97;5058856;28;45777;-74
2023/04/20 10:21:46;;;;;;;;;14.67;12.67;;;;;16.52;31.58;101053.63;5055316;27;45689;-72
2023/04/20 10:24:12;;;;;;;;;15.67;13.33;;;;;16.56;33.40;101051.78;5062911;27;45831;-77
2023/04/20 10:26:43;;;;;;;;;12.33;12.00;;;;;16.73;34.04;101068.25;5076057;27;46380;-73
2023/04/20 10:29:22;;;;;;;;;12.67;11.67;;;;;16.81;32.53;101063.69;5078818;27;45345;-70
2023/04/20 10:31:48;;;;;;;;;21.00;13.00;;;;;16.61;31.75;101031.41;5080443;27;45295;-67
2023/04/20 10:34:14;;;;;;;;;19.00;15.33;;;;;16.62;31.46;101059.63;5081367;27;45416;-68
2023/04/20 10:36:40;;;;;;;;;18.33;16.33;;;;;16.47;31.73;101066.06;5079082;28;46492;-75
2023/04/20 10:39:19;;;;;;;;;13.67;12.33;;;;;16.26;32.13;101048.78;5075737;27;45622;-73
2023/04/20 10:41:57;;;;;;;;;11.67;11.67;;;;;16.23;33.52;101036.50;5075852;27;45452;-68
2023/04/20 10:44:23;;;;;;;;;14.67;13.00;;;;;16.23;36.29;101054.09;5075699;27;45457;-67
2023/04/20 10:46:50;;;;;;;;;13.67;10.67;;;;;16.20;34.53;101040.94;5074250;27;45594;-68
2023/04/20 10:49:17;;;;;;;;;16.00;13.00;;;;;16.17;35.00;101049.78;5075064;27;45529;-68
2023/04/20 10:51:55;;;;;;;;;18.00;13.33;;;;;16.10;36.23;101025.22;5073811;27;45422;-73
2023/04/20 10:54:25;;;;;;;;;16.00;11.67;;;;;16.15;36.27;101040.16;5077506;27;45624;-71
2023/04/20 10:56:52;;;;;;;;;17.67;15.00;;;;;16.21;38.69;101045.34;5092274;27;46251;-70
2023/04/20 10:59:23;;;;;;;;;15.67;15.00;;;;;16.06;34.65;101035.88;5076340;27;45575;-74
2023/04/20 11:01:50;;;;;;;;;17.25;14.75;;;;;16.04;34.74;101041.19;5076534;27;45421;-72
2023/04/20 11:04:16;;;;;;;;;17.50;15.50;;;;;16.03;34.73;101039.44;5076792;27;45507;-72
2023/04/20 11:06:45;;;;;;;;;18.25;13.25;;;;;15.93;33.69;101032.56;5076013;27;46501;-78
2023/04/20 11:09:25;;;;;;;;;13.75;12.75;;;;;15.87;37.39;101035.28;5076814;28;45790;-78
2023/04/20 11:12:17;;;;;;;;;17.75;17.00;;;;;15.76;37.96;101018.75;5066976;27;45280;-75
2023/04/20 11:15:01;;;;;;;;;21.00;20.50;;;;;15.83;36.99;101030.97;5076150;27;45544;-73